Arklow Raider — EIXS — position and weather

sailwx.info

Track history (hours):
 
Tides and Currents Weather Stations Pressure Air Temp Water Temp Dewpoint Dewpoint Depression Visibility Wind Speed Wind Dir Waves Ship Positions

Arklow Raider

Last reported at 2016-Jul-26 02:24 UTC. Time now 2016-Jul-26 02:37 UTC.
Position N 45°36' W 001°27'.

Length 90 m; draft 3.6 m.

Type: Ship. MMSI: 250001268.

Date/timePositionNaut miles runAvg speedWind from/ knotsBaromVisibWave heightAir tempDewpointWater temp
2016-Jul-26 02:24N 45°36' W 001°27'0 0.0
2016-Jul-26 01:33N 45°36' W 001°27'0 0.0
2016-Jul-26 00:33N 45°36' W 001°27'0 0.0
2016-Jul-25 23:33N 45°36' W 001°27'0 0.0
2016-Jul-25 22:33N 45°36' W 001°27'0 0.0
2016-Jul-25 21:33N 45°36' W 001°27'0 0.0
2016-Jul-25 03:06N 45°36' W 001°27'0 0.0
2016-Jul-25 02:33N 45°36' W 001°27'0 0.0
2016-Jul-24 23:33N 45°36' W 001°27'0 0.0
2016-Jul-24 21:33N 45°36' W 001°27'  
2016-Jul-22 04:30N 39°09' W 009°51'1210.9
2016-Jul-22 03:25N 38°57' W 009°51'2010.4
2016-Jul-22 01:32N 38°38' W 009°48'1110.9
2016-Jul-22 00:33N 38°37' W 009°34'1111.2
2016-Jul-21 23:33N 38°39' W 009°20'1111.3
2016-Jul-21 22:33N 38°43' W 009°06'1 1.2
2016-Jul-21 21:32N 38°44' W 009°06'0 0.0
2016-Jul-21 20:29N 38°44' W 009°06'0 0.0
2016-Jul-21 19:32N 38°44' W 009°06'0 0.0
2016-Jul-21 18:29N 38°44' W 009°06'0 0.0
2016-Jul-21 17:32N 38°44' W 009°06'0 0.0
2016-Jul-21 16:32N 38°44' W 009°06'0 0.0
2016-Jul-21 15:32N 38°44' W 009°06'0 0.0
2016-Jul-21 14:32N 38°44' W 009°06'0 0.0
2016-Jul-21 13:32N 38°44' W 009°06'0 0.0
2016-Jul-21 12:32N 38°44' W 009°06'0 0.0
2016-Jul-21 11:29N 38°44' W 009°06'0 0.0
2016-Jul-21 10:32N 38°44' W 009°06'0 0.0
2016-Jul-21 09:29N 38°44' W 009°06'0 0.0
2016-Jul-21 08:29N 38°44' W 009°06'0 0.0
2016-Jul-21 07:32N 38°44' W 009°06'0 0.0
2016-Jul-21 06:32N 38°44' W 009°06'0 0.0
2016-Jul-21 05:29N 38°44' W 009°06'0 0.0
2016-Jul-21 04:29N 38°44' W 009°06'0 0.0
2016-Jul-21 03:32N 38°44' W 009°06'0 0.0
2016-Jul-21 02:32N 38°44' W 009°06'0 0.0
2016-Jul-21 01:32N 38°44' W 009°06'0 0.0
2016-Jul-21 00:26N 38°44' W 009°06'0 0.0
2016-Jul-20 23:32N 38°44' W 009°06'0 0.0
2016-Jul-20 22:32N 38°44' W 009°06'0 0.0
2016-Jul-20 21:29N 38°44' W 009°06'0 0.0
2016-Jul-20 20:29N 38°44' W 009°06'0 0.0
2016-Jul-20 19:32N 38°44' W 009°06'0 0.0
2016-Jul-20 18:32N 38°44' W 009°06'0 0.0
2016-Jul-20 17:29N 38°44' W 009°06'0 0.0
2016-Jul-20 16:29N 38°44' W 009°06'0 0.0
2016-Jul-20 15:29N 38°44' W 009°06'0 0.0
2016-Jul-20 14:32N 38°44' W 009°06'0 0.0
2016-Jul-20 13:32N 38°44' W 009°06'0 0.0
2016-Jul-20 12:32N 38°44' W 009°06'0 0.0
2016-Jul-20 11:32N 38°44' W 009°06'0 0.0
2016-Jul-20 10:32N 38°44' W 009°06'0 0.0
2016-Jul-20 09:26N 38°44' W 009°06'0 0.0
2016-Jul-20 08:29N 38°44' W 009°06'0 0.0
2016-Jul-20 07:32N 38°44' W 009°06'0 0.0
2016-Jul-20 06:32N 38°44' W 009°06'0 0.0
2016-Jul-20 05:29N 38°44' W 009°06'0 0.0
2016-Jul-20 04:29N 38°44' W 009°06'0 0.0
2016-Jul-20 03:29N 38°44' W 009°06'0 0.0
2016-Jul-20 02:29N 38°44' W 009°06'0 0.0
2016-Jul-20 01:17N 38°44' W 009°06'0 0.0
2016-Jul-20 00:26N 38°44' W 009°06'0 0.0
2016-Jul-19 23:32N 38°44' W 009°06'0 0.0
2016-Jul-19 22:29N 38°44' W 009°06'0 0.0
2016-Jul-19 21:32N 38°44' W 009°06'1 1.3
2016-Jul-19 20:32N 38°43' W 009°07'8 8.5
2016-Jul-19 19:34N 38°41' W 009°17'8 7.7
2016-Jul-19 18:33N 38°37' W 009°25'8 8.2
2016-Jul-19 17:33N 38°36' W 009°36'1210.8
2016-Jul-19 16:28N 38°36' W 009°51'16 8.3
2016-Jul-19 14:33N 38°47' W 010°06'  
2016-Jul-17 04:33N 48°43' W 005°57'1111.1
2016-Jul-17 03:33N 48°53' W 005°49'1010.4
2016-Jul-17 02:33N 48°58' W 005°35'1010.1
2016-Jul-17 01:33N 49°03' W 005°22'1010.2
2016-Jul-17 00:33N 49°09' W 005°09'1110.6
2016-Jul-16 23:33N 49°14' W 004°55'1111.2
2016-Jul-16 22:33N 49°20' W 004°40'1211.6
2016-Jul-16 21:33N 49°25' W 004°24'1211.8
2016-Jul-16 20:33N 49°31' W 004°09'1211.6
2016-Jul-16 19:33N 49°37' W 003°53'1111.1
2016-Jul-16 18:33N 49°43' W 003°38'1110.5
2016-Jul-16 17:33N 49°48' W 003°24'10 9.9
2016-Jul-16 16:33N 49°53' W 003°11'10 9.9
2016-Jul-16 15:33N 49°58' W 002°58'1010.2
2016-Jul-16 14:33N 50°01' W 002°43'1111.0
2016-Jul-16 13:33N 50°04' W 002°26'1212.0
2016-Jul-16 12:33N 50°08' W 002°08'1312.9
2016-Jul-16 11:34N 50°11' W 001°49'1313.0
2016-Jul-16 10:33N 50°15' W 001°30'1312.5
2016-Jul-16 09:30N 50°19' W 001°10'1111.5
2016-Jul-16 08:33N 50°22' W 000°54'1010.1
2016-Jul-16 07:33N 50°25' W 000°38'10 9.5
2016-Jul-16 06:30N 50°28' W 000°23'19 9.7
2016-Jul-16 04:33N 50°33' E 000°05'  
Track history (hours):
 
Tides and Currents Weather Stations Pressure Air Temp Water Temp Dewpoint Dewpoint Depression Visibility Wind Speed Wind Dir Waves Ship Positions

Arklow Raider

Last reported at 2016-Jul-26 02:24 UTC. Time now 2016-Jul-26 02:37 UTC.
Position N 45°36' W 001°27'.

Length 90 m; draft 3.6 m.

Type: Ship. MMSI: 250001268.

Date/timePositionNaut miles runAvg speedWind from/ knotsBaromVisibWave heightAir tempDewpointWater temp
2016-Jul-26 02:24N 45°36' W 001°27'0 0.0
2016-Jul-26 01:33N 45°36' W 001°27'0 0.0
2016-Jul-26 00:33N 45°36' W 001°27'0 0.0
2016-Jul-25 23:33N 45°36' W 001°27'0 0.0
2016-Jul-25 22:33N 45°36' W 001°27'0 0.0
2016-Jul-25 21:33N 45°36' W 001°27'0 0.0
2016-Jul-25 03:06N 45°36' W 001°27'0 0.0
2016-Jul-25 02:33N 45°36' W 001°27'0 0.0
2016-Jul-24 23:33N 45°36' W 001°27'0 0.0
2016-Jul-24 21:33N 45°36' W 001°27'  
2016-Jul-22 04:30N 39°09' W 009°51'1210.9
2016-Jul-22 03:25N 38°57' W 009°51'2010.4
2016-Jul-22 01:32N 38°38' W 009°48'1110.9
2016-Jul-22 00:33N 38°37' W 009°34'1111.2
2016-Jul-21 23:33N 38°39' W 009°20'1111.3
2016-Jul-21 22:33N 38°43' W 009°06'1 1.2
2016-Jul-21 21:32N 38°44' W 009°06'0 0.0
2016-Jul-21 20:29N 38°44' W 009°06'0 0.0
2016-Jul-21 19:32N 38°44' W 009°06'0 0.0
2016-Jul-21 18:29N 38°44' W 009°06'0 0.0
2016-Jul-21 17:32N 38°44' W 009°06'0 0.0
2016-Jul-21 16:32N 38°44' W 009°06'0 0.0
2016-Jul-21 15:32N 38°44' W 009°06'0 0.0
2016-Jul-21 14:32N 38°44' W 009°06'0 0.0
2016-Jul-21 13:32N 38°44' W 009°06'0 0.0
2016-Jul-21 12:32N 38°44' W 009°06'0 0.0
2016-Jul-21 11:29N 38°44' W 009°06'0 0.0
2016-Jul-21 10:32N 38°44' W 009°06'0 0.0
2016-Jul-21 09:29N 38°44' W 009°06'0 0.0
2016-Jul-21 08:29N 38°44' W 009°06'0 0.0
2016-Jul-21 07:32N 38°44' W 009°06'0 0.0
2016-Jul-21 06:32N 38°44' W 009°06'0 0.0
2016-Jul-21 05:29N 38°44' W 009°06'0 0.0
2016-Jul-21 04:29N 38°44' W 009°06'0 0.0
2016-Jul-21 03:32N 38°44' W 009°06'0 0.0
2016-Jul-21 02:32N 38°44' W 009°06'0 0.0
2016-Jul-21 01:32N 38°44' W 009°06'0 0.0
2016-Jul-21 00:26N 38°44' W 009°06'0 0.0
2016-Jul-20 23:32N 38°44' W 009°06'0 0.0
2016-Jul-20 22:32N 38°44' W 009°06'0 0.0
2016-Jul-20 21:29N 38°44' W 009°06'0 0.0
2016-Jul-20 20:29N 38°44' W 009°06'0 0.0
2016-Jul-20 19:32N 38°44' W 009°06'0 0.0
2016-Jul-20 18:32N 38°44' W 009°06'0 0.0
2016-Jul-20 17:29N 38°44' W 009°06'0 0.0
2016-Jul-20 16:29N 38°44' W 009°06'0 0.0
2016-Jul-20 15:29N 38°44' W 009°06'0 0.0
2016-Jul-20 14:32N 38°44' W 009°06'0 0.0
2016-Jul-20 13:32N 38°44' W 009°06'0 0.0
2016-Jul-20 12:32N 38°44' W 009°06'0 0.0
2016-Jul-20 11:32N 38°44' W 009°06'0 0.0
2016-Jul-20 10:32N 38°44' W 009°06'0 0.0
2016-Jul-20 09:26N 38°44' W 009°06'0 0.0
2016-Jul-20 08:29N 38°44' W 009°06'0 0.0
2016-Jul-20 07:32N 38°44' W 009°06'0 0.0
2016-Jul-20 06:32N 38°44' W 009°06'0 0.0
2016-Jul-20 05:29N 38°44' W 009°06'0 0.0
2016-Jul-20 04:29N 38°44' W 009°06'0 0.0
2016-Jul-20 03:29N 38°44' W 009°06'0 0.0
2016-Jul-20 02:29N 38°44' W 009°06'0 0.0
2016-Jul-20 01:17N 38°44' W 009°06'0 0.0
2016-Jul-20 00:26N 38°44' W 009°06'0 0.0
2016-Jul-19 23:32N 38°44' W 009°06'0 0.0
2016-Jul-19 22:29N 38°44' W 009°06'0 0.0
2016-Jul-19 21:32N 38°44' W 009°06'1 1.3
2016-Jul-19 20:32N 38°43' W 009°07'8 8.5
2016-Jul-19 19:34N 38°41' W 009°17'8 7.7
2016-Jul-19 18:33N 38°37' W 009°25'8 8.2
2016-Jul-19 17:33N 38°36' W 009°36'1210.8
2016-Jul-19 16:28N 38°36' W 009°51'16 8.3
2016-Jul-19 14:33N 38°47' W 010°06'  
2016-Jul-17 04:33N 48°43' W 005°57'1111.1
2016-Jul-17 03:33N 48°53' W 005°49'1010.4
2016-Jul-17 02:33N 48°58' W 005°35'1010.1
2016-Jul-17 01:33N 49°03' W 005°22'1010.2
2016-Jul-17 00:33N 49°09' W 005°09'1110.6
2016-Jul-16 23:33N 49°14' W 004°55'1111.2
2016-Jul-16 22:33N 49°20' W 004°40'1211.6
2016-Jul-16 21:33N 49°25' W 004°24'1211.8
2016-Jul-16 20:33N 49°31' W 004°09'1211.6
2016-Jul-16 19:33N 49°37' W 003°53'1111.1
2016-Jul-16 18:33N 49°43' W 003°38'1110.5
2016-Jul-16 17:33N 49°48' W 003°24'10 9.9
2016-Jul-16 16:33N 49°53' W 003°11'10 9.9
2016-Jul-16 15:33N 49°58' W 002°58'1010.2
2016-Jul-16 14:33N 50°01' W 002°43'1111.0
2016-Jul-16 13:33N 50°04' W 002°26'1212.0
2016-Jul-16 12:33N 50°08' W 002°08'1312.9
2016-Jul-16 11:34N 50°11' W 001°49'1313.0
2016-Jul-16 10:33N 50°15' W 001°30'1312.5
2016-Jul-16 09:30N 50°19' W 001°10'1111.5
2016-Jul-16 08:33N 50°22' W 000°54'1010.1
2016-Jul-16 07:33N 50°25' W 000°38'10 9.5
2016-Jul-16 06:30N 50°28' W 000°23'19 9.7
2016-Jul-16 04:33N 50°33' E 000°05'  

Dump ship's entire track history